createdAt,value
2019-04-07T00:02:21.022Z,50.08
2019-04-07T00:04:47.752Z,59.98
2019-04-07T00:07:14.957Z,59.45
2019-04-07T00:09:41.568Z,62.40
2019-04-07T00:12:08.278Z,70.12
2019-04-07T00:14:34.930Z,67.55
2019-04-07T00:17:01.780Z,79.12
2019-04-07T00:19:28.586Z,127.07
2019-04-07T00:21:55.750Z,99.03
2019-04-07T00:24:22.595Z,93.20
2019-04-07T00:26:49.336Z,68.83
2019-04-07T00:29:16.093Z,66.22
2019-04-07T00:31:43.109Z,95.87
2019-04-07T00:34:09.962Z,134.15
2019-04-07T00:36:37.793Z,123.67
2019-04-07T00:39:06.891Z,85.77
2019-04-07T00:41:33.560Z,93.72
2019-04-07T00:44:00.395Z,116.17
2019-04-07T00:46:27.002Z,85.05
2019-04-07T00:48:53.950Z,77.17
2019-04-07T00:51:20.822Z,120.25
2019-04-07T00:53:47.455Z,64.95
2019-04-07T00:56:14.628Z,62.65
2019-04-07T00:58:41.386Z,77.37
2019-04-07T01:01:09.141Z,62.93
2019-04-07T01:03:35.801Z,53.95
2019-04-07T01:06:02.468Z,57.15
2019-04-07T01:08:29.397Z,54.08
2019-04-07T01:10:56.223Z,47.30
2019-04-07T01:13:24.013Z,46.98
2019-04-07T01:15:51.396Z,40.50
2019-04-07T01:18:18.230Z,42.65
2019-04-07T01:20:45.212Z,34.30
2019-04-07T01:23:12.712Z,32.35
2019-04-07T01:25:39.683Z,41.55
2019-04-07T01:28:06.677Z,44.30
2019-04-07T01:30:33.668Z,41.90
2019-04-07T01:33:00.915Z,39.83
2019-04-07T01:35:27.983Z,38.85
2019-04-07T01:37:56.144Z,43.68
2019-04-07T01:40:23.509Z,46.40
2019-04-07T01:42:55.247Z,38.65
2019-04-07T01:45:39.244Z,39.98
2019-04-07T01:48:13.916Z,37.95
2019-04-07T01:50:51.841Z,39.83
2019-04-07T01:53:20.329Z,41.30
2019-04-07T01:55:58.660Z,39.33
2019-04-07T01:58:33.042Z,43.92
2019-04-07T02:01:18.362Z,38.00
2019-04-07T02:03:58.980Z,41.60
2019-04-07T02:06:33.317Z,35.88
2019-04-07T02:09:01.839Z,36.42
2019-04-07T02:11:48.020Z,35.05
2019-04-07T02:14:19.233Z,36.40
2019-04-07T02:16:47.674Z,30.90
2019-04-07T02:19:19.306Z,29.85
2019-04-07T02:21:53.534Z,31.62
2019-04-07T02:24:38.898Z,28.60
2019-04-07T02:27:07.659Z,28.98
2019-04-07T02:29:48.840Z,27.10
2019-04-07T02:32:34.478Z,27.65
2019-04-07T02:35:20.892Z,28.92
2019-04-07T02:38:02.242Z,27.90
2019-04-07T02:40:48.766Z,25.87
2019-04-07T02:43:35.890Z,47.65
2019-04-07T02:46:04.411Z,38.78
2019-04-07T02:48:45.021Z,29.48
2019-04-07T02:51:22.893Z,27.93
2019-04-07T02:54:07.762Z,30.35
2019-04-07T02:56:37.412Z,52.08
2019-04-07T02:59:06.068Z,35.98
2019-04-07T03:01:51.990Z,36.50
2019-04-07T03:04:24.501Z,40.45
2019-04-07T03:06:58.966Z,36.28
2019-04-07T03:09:28.232Z,34.33
2019-04-07T03:12:04.197Z,38.48
2019-04-07T03:14:34.452Z,41.73
2019-04-07T03:17:20.149Z,44.03
2019-04-07T03:19:57.788Z,45.12
2019-04-07T03:22:42.438Z,41.13
2019-04-07T03:25:14.127Z,64.67
2019-04-07T03:27:52.710Z,44.73
2019-04-07T03:30:40.511Z,65.80
2019-04-07T03:33:27.499Z,51.15
2019-04-07T03:36:18.013Z,47.38
2019-04-07T03:38:43.315Z,45.03
2019-04-07T03:41:21.759Z,50.50
2019-04-07T03:43:59.342Z,58.60
2019-04-07T03:46:34.653Z,56.30
2019-04-07T03:49:18.778Z,59.27
2019-04-07T03:51:59.875Z,63.70
2019-04-07T03:54:28.488Z,62.25
2019-04-07T03:57:06.983Z,60.67
2019-04-07T03:59:44.710Z,66.95
2019-04-07T04:02:30.193Z,83.05
2019-04-07T04:04:59.613Z,73.75
2019-04-07T04:07:34.294Z,54.13
2019-04-07T04:09:58.767Z,52.38
2019-04-07T04:12:34.196Z,56.15
2019-04-07T04:15:06.741Z,54.85
2019-04-07T04:17:34.478Z,40.38
2019-04-07T04:20:02.319Z,59.18
2019-04-07T04:22:29.670Z,72.05
2019-04-07T04:24:57.759Z,62.05
2019-04-07T04:27:26.228Z,75.42
2019-04-07T04:29:53.464Z,62.10
2019-04-07T04:32:21.846Z,53.78
2019-04-07T04:34:49.643Z,85.45
2019-04-07T04:37:21.438Z,98.85
2019-04-07T04:39:45.034Z,52.53
2019-04-07T04:42:13.535Z,52.08
2019-04-07T04:44:40.541Z,71.17
2019-04-07T04:47:08.076Z,60.90
2019-04-07T04:49:35.271Z,67.10
2019-04-07T04:52:03.017Z,80.85
2019-04-07T04:54:29.816Z,69.45
2019-04-07T04:56:56.977Z,84.47
2019-04-07T04:59:23.896Z,91.02
2019-04-07T05:01:51.293Z,72.22
2019-04-07T05:04:19.078Z,91.75
2019-04-07T05:06:46.485Z,71.67
2019-04-07T05:09:13.380Z,101.22
2019-04-07T05:11:40.788Z,75.70
2019-04-07T05:14:08.857Z,87.02
2019-04-07T05:16:35.706Z,98.33
2019-04-07T05:19:02.721Z,82.42
2019-04-07T05:21:29.539Z,99.05
2019-04-07T05:23:56.569Z,84.10
2019-04-07T05:26:23.958Z,116.37
2019-04-07T05:28:50.901Z,75.47
2019-04-07T05:31:17.757Z,119.85
2019-04-07T05:33:44.916Z,83.58
2019-04-07T05:36:12.229Z,73.78
2019-04-07T05:38:39.530Z,72.50
2019-04-07T05:41:06.552Z,68.35
2019-04-07T05:43:33.882Z,50.67
2019-04-07T05:46:00.838Z,50.28
2019-04-07T05:48:27.985Z,58.13
2019-04-07T05:50:57.926Z,64.72
2019-04-07T05:53:23.349Z,46.08
2019-04-07T05:55:53.759Z,51.25
2019-04-07T05:58:19.020Z,49.60
2019-04-07T06:00:46.980Z,47.75
2019-04-07T06:03:14.369Z,44.77
2019-04-07T06:05:41.045Z,47.85
2019-04-07T06:08:22.557Z,47.50
2019-04-07T06:10:37.018Z,45.03
2019-04-07T06:13:04.113Z,49.53
2019-04-07T06:15:31.241Z,46.60
2019-04-07T06:18:00.614Z,41.00
2019-04-07T06:20:26.587Z,43.85
2019-04-07T06:22:54.446Z,41.15
2019-04-07T06:25:21.372Z,40.70
2019-04-07T06:27:48.885Z,39.10
2019-04-07T06:30:17.514Z,41.45
2019-04-07T06:32:44.746Z,36.60
2019-04-07T06:35:13.311Z,39.63
2019-04-07T06:37:40.710Z,39.18
2019-04-07T06:40:07.740Z,38.88
2019-04-07T06:42:34.397Z,39.30
2019-04-07T06:45:01.671Z,44.65
2019-04-07T06:47:31.263Z,45.85
2019-04-07T06:50:00.866Z,47.15
2019-04-07T06:52:30.178Z,53.60
2019-04-07T06:55:15.794Z,49.67
2019-04-07T06:58:01.978Z,52.40
2019-04-07T07:00:35.292Z,61.63
2019-04-07T07:03:20.323Z,53.65
2019-04-07T07:05:54.624Z,52.88
2019-04-07T07:08:28.993Z,58.48
2019-04-07T07:11:05.787Z,49.60
2019-04-07T07:13:36.503Z,63.55
2019-04-07T07:16:07.951Z,58.63
2019-04-07T07:18:35.762Z,58.25
2019-04-07T07:21:07.473Z,57.80
2019-04-07T07:23:36.407Z,50.95
2019-04-07T07:26:04.229Z,50.48
2019-04-07T07:28:32.585Z,48.85
2019-04-07T07:31:00.028Z,44.18
2019-04-07T07:33:26.972Z,38.98
2019-04-07T07:35:53.744Z,46.68
2019-04-07T07:38:20.435Z,43.63
2019-04-07T07:40:47.786Z,38.70
2019-04-07T07:43:15.616Z,34.48
2019-04-07T07:45:45.100Z,24.98
2019-04-07T07:48:10.976Z,25.32
2019-04-07T07:50:40.119Z,30.00
2019-04-07T07:53:06.802Z,34.98
2019-04-07T07:55:35.956Z,27.13
2019-04-07T07:58:02.727Z,32.35
2019-04-07T08:00:29.568Z,38.53
2019-04-07T08:02:56.273Z,37.03
2019-04-07T08:05:23.764Z,39.42
2019-04-07T08:07:51.207Z,37.85
2019-04-07T08:10:18.696Z,35.00
2019-04-07T08:12:48.614Z,33.55
2019-04-07T08:15:13.970Z,36.83
2019-04-07T08:17:40.979Z,32.73
2019-04-07T08:20:07.944Z,40.17
2019-04-07T08:22:40.633Z,35.63
2019-04-07T08:25:04.326Z,36.75
2019-04-07T08:27:32.045Z,31.52
2019-04-07T08:30:19.592Z,29.45
2019-04-07T08:32:46.284Z,25.17
2019-04-07T08:35:13.137Z,30.37
2019-04-07T08:37:40.509Z,28.98
2019-04-07T08:40:07.837Z,24.82
2019-04-07T08:42:34.674Z,30.30
2019-04-07T08:45:01.593Z,25.32
2019-04-07T08:47:28.983Z,31.05
2019-04-07T08:49:57.744Z,24.25
2019-04-07T08:52:24.930Z,29.82
2019-04-07T08:54:53.361Z,31.52
2019-04-07T08:57:20.167Z,31.68
2019-04-07T08:59:46.855Z,24.45
2019-04-07T09:02:13.677Z,28.27
2019-04-07T09:04:41.187Z,26.80
2019-04-07T09:07:08.165Z,24.77
2019-04-07T09:09:36.981Z,27.02
2019-04-07T09:12:03.435Z,26.65
2019-04-07T09:14:30.140Z,25.37
2019-04-07T09:17:08.265Z,27.17
2019-04-07T09:19:40.056Z,21.80
2019-04-07T09:22:14.154Z,24.95
2019-04-07T09:24:57.912Z,24.57
2019-04-07T09:27:29.055Z,25.65
2019-04-07T09:30:06.036Z,23.50
2019-04-07T09:32:49.945Z,24.45
2019-04-07T09:35:36.120Z,25.52
2019-04-07T09:38:24.944Z,23.40
2019-04-07T09:41:01.656Z,21.93
2019-04-07T09:43:33.465Z,22.73
2019-04-07T09:46:11.803Z,23.70
2019-04-07T09:48:50.956Z,22.80
2019-04-07T09:51:17.673Z,22.73
2019-04-07T09:53:48.816Z,20.95
2019-04-07T09:56:17.287Z,20.77
2019-04-07T09:59:02.511Z,20.20
2019-04-07T10:01:31.818Z,23.98
2019-04-07T10:04:17.299Z,24.47
2019-04-07T10:06:57.733Z,26.00
2019-04-07T10:09:43.471Z,28.17
2019-04-07T10:12:30.062Z,27.87
2019-04-07T10:15:08.032Z,25.25
2019-04-07T10:17:45.561Z,24.00
2019-04-07T10:20:31.463Z,23.25
2019-04-07T10:23:03.012Z,24.57
2019-04-07T10:25:50.697Z,23.52
2019-04-07T10:28:22.404Z,21.77
2019-04-07T10:30:57.048Z,24.37
2019-04-07T10:33:31.649Z,22.15
2019-04-07T10:36:00.115Z,24.52
2019-04-07T10:38:45.320Z,23.07
2019-04-07T10:41:17.205Z,23.07
2019-04-07T10:46:16.912Z,20.15
2019-04-07T10:48:51.192Z,18.07
2019-04-07T10:51:25.702Z,20.08
2019-04-07T10:53:59.797Z,22.37
2019-04-07T10:56:46.094Z,17.73
2019-04-07T10:59:17.475Z,19.17
2019-04-07T11:01:49.129Z,19.73
2019-04-07T11:04:30.494Z,20.40
2019-04-07T11:07:05.278Z,20.20
2019-04-07T11:09:50.179Z,21.85
2019-04-07T11:12:30.818Z,21.90
2019-04-07T11:15:08.191Z,23.57
2019-04-07T11:17:53.619Z,23.75
2019-04-07T11:20:28.143Z,19.17
2019-04-07T11:23:11.972Z,22.20
2019-04-07T11:25:47.782Z,19.50
2019-04-07T11:28:31.803Z,22.37
2019-04-07T11:31:15.756Z,20.23
2019-04-07T11:33:50.358Z,18.48
2019-04-07T11:36:28.846Z,17.30
2019-04-07T11:39:00.604Z,23.42
2019-04-07T11:41:41.324Z,25.35
2019-04-07T11:44:16.381Z,22.02
2019-04-07T11:46:51.991Z,28.10
2019-04-07T11:49:26.659Z,19.02
2019-04-07T11:52:10.439Z,23.50
2019-04-07T11:54:55.635Z,22.73
2019-04-07T11:57:45.124Z,20.88
2019-04-07T12:00:16.548Z,19.20
2019-04-07T12:05:31.135Z,19.50
2019-04-07T12:08:16.481Z,22.05
2019-04-07T12:10:58.706Z,22.02
2019-04-07T12:13:22.086Z,18.07
2019-04-07T12:15:50.915Z,19.00
2019-04-07T12:18:35.268Z,18.45
2019-04-07T12:21:22.720Z,13.68
2019-04-07T12:24:09.578Z,15.43
2019-04-07T12:26:56.581Z,15.68
2019-04-07T12:29:28.807Z,13.35
2019-04-07T12:32:12.281Z,15.43
2019-04-07T12:34:44.025Z,12.37
2019-04-07T12:37:11.116Z,14.73
2019-04-07T12:39:48.767Z,13.05
2019-04-07T12:42:33.293Z,12.07
2019-04-07T12:45:05.162Z,8.65
2019-04-07T12:47:39.848Z,10.03
2019-04-07T12:50:16.660Z,9.75
2019-04-07T12:52:45.193Z,13.55
2019-04-07T12:55:22.771Z,9.15
2019-04-07T12:58:04.769Z,8.33
2019-04-07T13:03:18.632Z,7.72
2019-04-07T13:05:47.111Z,9.35
2019-04-07T13:08:22.550Z,7.67
2019-04-07T13:10:49.416Z,6.97
2019-04-07T13:13:34.258Z,7.28
2019-04-07T13:16:06.395Z,7.03
2019-04-07T13:18:40.777Z,9.53
2019-04-07T13:21:25.734Z,8.18
2019-04-07T13:24:00.412Z,10.90
2019-04-07T13:26:35.658Z,7.42
2019-04-07T13:29:17.333Z,11.22
2019-04-07T13:31:58.827Z,10.18
2019-04-07T13:34:31.140Z,9.40
2019-04-07T13:37:03.447Z,8.00
2019-04-07T13:39:35.939Z,5.00
2019-04-07T13:42:03.271Z,7.87
2019-04-07T13:44:38.830Z,5.12
2019-04-07T13:47:07.242Z,5.50
2019-04-07T13:49:52.336Z,7.45
2019-04-07T13:52:26.659Z,6.30
2019-04-07T13:55:05.144Z,9.08
2019-04-07T13:57:46.196Z,6.35
2019-04-07T14:00:16.846Z,8.48
2019-04-07T14:02:45.564Z,8.58
2019-04-07T14:05:33.165Z,7.65
2019-04-07T14:08:12.042Z,7.60
2019-04-07T14:10:40.555Z,6.95
2019-04-07T14:13:25.661Z,6.78
2019-04-07T14:16:10.957Z,11.38
2019-04-07T14:18:56.938Z,9.85
2019-04-07T14:21:26.230Z,8.88
2019-04-07T14:24:10.172Z,6.87
2019-04-07T14:26:44.910Z,6.03
2019-04-07T14:29:31.669Z,7.70
2019-04-07T14:32:02.964Z,7.20
2019-04-07T14:34:41.293Z,6.78
2019-04-07T14:37:12.700Z,6.60
2019-04-07T14:39:44.459Z,8.68
2019-04-07T14:44:41.593Z,8.55
2019-04-07T14:47:16.247Z,8.85
2019-04-07T14:49:52.101Z,8.33
2019-04-07T14:52:25.028Z,8.10
2019-04-07T14:54:57.106Z,8.10
2019-04-07T14:57:25.528Z,8.45
2019-04-07T15:00:00.077Z,8.18
2019-04-07T15:02:27.933Z,15.65
2019-04-07T15:05:14.874Z,8.85
2019-04-07T15:07:46.997Z,8.48
2019-04-07T15:10:28.434Z,11.80
2019-04-07T15:12:57.903Z,7.53
2019-04-07T15:15:24.806Z,8.70
2019-04-07T15:17:52.367Z,9.93
2019-04-07T15:21:00.348Z,9.48
2019-04-07T15:23:33.508Z,12.28
2019-04-07T15:26:00.316Z,9.53
2019-04-07T15:28:29.770Z,11.40
2019-04-07T15:30:55.657Z,10.65
2019-04-07T15:33:22.443Z,9.28
2019-04-07T15:35:50.576Z,9.40
2019-04-07T15:38:23.833Z,9.13
2019-04-07T15:40:47.183Z,13.18
2019-04-07T15:43:13.766Z,9.60
2019-04-07T15:45:42.657Z,14.43
2019-04-07T15:48:09.045Z,11.35
2019-04-07T15:50:35.743Z,13.83
2019-04-07T15:53:02.739Z,11.63
2019-04-07T15:55:43.170Z,10.85
2019-04-07T15:57:59.586Z,12.68
2019-04-07T16:00:26.602Z,10.95
2019-04-07T16:02:53.707Z,9.55
2019-04-07T16:05:21.600Z,12.18
2019-04-07T16:07:51.301Z,14.38
2019-04-07T16:10:21.131Z,9.33
2019-04-07T16:12:49.943Z,9.85
2019-04-07T16:15:16.520Z,10.43
2019-04-07T16:17:43.581Z,10.88
2019-04-07T16:20:20.727Z,9.25
2019-04-07T16:22:44.195Z,7.95
2019-04-07T16:25:11.198Z,9.20
2019-04-07T16:27:39.168Z,11.20
2019-04-07T16:30:09.866Z,13.78
2019-04-07T16:32:37.616Z,10.32
2019-04-07T16:35:10.405Z,9.15
2019-04-07T16:37:37.568Z,10.85
2019-04-07T16:40:10.133Z,10.38
2019-04-07T16:42:34.683Z,8.85
2019-04-07T16:45:01.807Z,7.10
2019-04-07T16:47:32.722Z,8.40
2019-04-07T16:49:57.383Z,9.55
2019-04-07T16:52:24.428Z,8.53
2019-04-07T16:54:51.590Z,13.22
2019-04-07T16:57:18.621Z,9.10
2019-04-07T16:59:45.238Z,10.55
2019-04-07T17:02:14.421Z,11.78
2019-04-07T17:04:41.002Z,13.03
2019-04-07T17:07:12.517Z,12.85
2019-04-07T17:09:36.677Z,16.55
2019-04-07T17:12:03.652Z,12.40
2019-04-07T17:14:34.445Z,14.47
2019-04-07T17:17:00.265Z,14.75
2019-04-07T17:19:27.593Z,16.70
2019-04-07T17:21:56.231Z,18.42
2019-04-07T17:24:27.802Z,11.97
2019-04-07T17:26:51.800Z,12.28
2019-04-07T17:29:20.932Z,11.45
2019-04-07T17:31:48.636Z,13.65
2019-04-07T17:34:15.721Z,16.60
2019-04-07T17:36:42.865Z,16.17
2019-04-07T17:39:14.468Z,15.20
2019-04-07T17:41:41.709Z,16.15
2019-04-07T17:44:16.950Z,14.15
2019-04-07T17:46:43.830Z,13.18
2019-04-07T17:49:26.281Z,16.82
2019-04-07T17:51:54.742Z,16.07
2019-04-07T17:54:32.434Z,14.33
2019-04-07T17:57:10.405Z,16.25
2019-04-07T17:59:44.813Z,15.30
2019-04-07T18:02:11.807Z,13.75
2019-04-07T18:04:50.386Z,12.15
2019-04-07T18:07:20.134Z,14.60
2019-04-07T18:10:05.459Z,15.32
2019-04-07T18:12:33.965Z,14.50
2019-04-07T18:15:19.185Z,14.43
2019-04-07T18:18:05.824Z,14.15
2019-04-07T18:20:41.126Z,15.88
2019-04-07T18:23:24.079Z,19.02
2019-04-07T18:28:25.955Z,14.75
2019-04-07T18:31:02.699Z,20.40
2019-04-07T18:33:50.063Z,18.35
2019-04-07T18:36:19.428Z,18.95
2019-04-07T18:38:53.866Z,17.77
2019-04-07T18:41:25.177Z,17.67
2019-04-07T18:44:08.560Z,19.37
2019-04-07T18:46:36.134Z,19.85
2019-04-07T18:49:05.933Z,20.08
2019-04-07T18:51:48.400Z,25.88
2019-04-07T18:54:33.891Z,22.15
2019-04-07T18:57:10.851Z,27.35
2019-04-07T19:00:01.275Z,27.25
2019-04-07T19:02:35.030Z,24.12
2019-04-07T19:05:07.047Z,28.38
2019-04-07T19:07:47.793Z,24.60
2019-04-07T19:10:25.661Z,25.97
2019-04-07T19:13:06.443Z,27.25
2019-04-07T19:15:30.668Z,26.97
2019-04-07T19:18:05.849Z,28.95
2019-04-07T19:20:38.407Z,30.70
2019-04-07T19:23:13.490Z,35.28
2019-04-07T19:25:58.915Z,30.82
2019-04-07T19:28:42.350Z,32.50
2019-04-07T19:31:27.807Z,30.17
2019-04-07T19:33:58.707Z,35.23
2019-04-07T19:36:27.621Z,33.40
2019-04-07T19:38:59.165Z,33.88
2019-04-07T19:41:34.169Z,32.85
2019-04-07T19:44:18.896Z,33.67
2019-04-07T19:46:48.174Z,34.98
2019-04-07T19:49:20.418Z,32.75
2019-04-07T19:51:53.568Z,34.83
2019-04-07T19:54:22.046Z,29.18
2019-04-07T19:56:50.540Z,28.00
2019-04-07T19:59:26.655Z,29.63
2019-04-07T20:01:58.242Z,31.17
2019-04-07T20:04:37.401Z,30.77
2019-04-07T20:07:09.236Z,29.63
2019-04-07T20:09:44.113Z,32.42
2019-04-07T20:12:16.893Z,33.92
2019-04-07T20:14:59.312Z,33.58
2019-04-07T20:17:24.474Z,33.85
2019-04-07T20:19:53.562Z,32.98
2019-04-07T20:22:23.148Z,36.70
2019-04-07T20:25:13.282Z,35.33
2019-04-07T20:27:42.783Z,34.63
2019-04-07T20:30:16.332Z,37.33
2019-04-07T20:32:59.469Z,42.53
2019-04-07T20:35:30.267Z,37.05
2019-04-07T20:38:02.006Z,43.23
2019-04-07T20:40:36.241Z,39.40
2019-04-07T20:43:14.402Z,39.45
2019-04-07T20:45:51.649Z,46.02
2019-04-07T20:48:20.147Z,48.13
2019-04-07T20:50:51.141Z,48.00
2019-04-07T20:53:23.895Z,47.23
2019-04-07T20:55:56.083Z,52.43
2019-04-07T20:58:46.399Z,54.27
2019-04-07T21:01:22.202Z,57.93
2019-04-07T21:03:56.475Z,58.75
2019-04-07T21:06:42.112Z,57.15
2019-04-07T21:09:10.652Z,53.83
2019-04-07T21:11:47.312Z,58.25
2019-04-07T21:14:18.666Z,56.23
2019-04-07T21:16:53.078Z,64.82
2019-04-07T21:19:35.477Z,71.10
2019-04-07T21:22:01.578Z,60.80
2019-04-07T21:24:49.770Z,57.35
2019-04-07T21:27:27.152Z,59.35
2019-04-07T21:29:56.604Z,58.98
2019-04-07T21:32:41.683Z,64.15
2019-04-07T21:35:29.222Z,64.37
2019-04-07T21:38:13.590Z,63.08
2019-04-07T21:40:43.674Z,63.42
2019-04-07T21:43:15.557Z,61.83
2019-04-07T21:45:54.499Z,59.80
2019-04-07T21:48:39.178Z,54.00
2019-04-07T21:51:16.443Z,50.88
2019-04-07T21:53:44.378Z,53.42
2019-04-07T21:56:18.768Z,51.68
2019-04-07T21:58:59.305Z,50.28
2019-04-07T22:01:28.318Z,48.70
2019-04-07T22:04:15.945Z,53.02
2019-04-07T22:06:48.788Z,55.23
2019-04-07T22:09:23.506Z,64.05
2019-04-07T22:11:50.263Z,64.40
2019-04-07T22:14:16.908Z,60.92
2019-04-07T22:16:43.670Z,60.75
2019-04-07T22:19:13.563Z,61.53
2019-04-07T22:21:38.868Z,60.60
2019-04-07T22:24:05.620Z,58.65
2019-04-07T22:26:33.505Z,66.50
2019-04-07T22:29:03.148Z,59.65
2019-04-07T22:31:31.078Z,57.75
2019-04-07T22:34:00.915Z,57.17
2019-04-07T22:36:27.270Z,60.60
2019-04-07T22:38:56.486Z,54.03
2019-04-07T22:41:24.641Z,58.10
2019-04-07T22:43:51.950Z,61.02
2019-04-07T22:46:24.551Z,62.55
2019-04-07T22:48:48.160Z,59.45
2019-04-07T22:51:14.966Z,63.92
2019-04-07T22:53:41.748Z,56.77
2019-04-07T22:56:09.114Z,55.15
2019-04-07T22:58:36.173Z,47.45
2019-04-07T23:01:03.601Z,53.60
2019-04-07T23:03:31.283Z,50.15
2019-04-07T23:05:59.162Z,50.83
2019-04-07T23:08:26.490Z,49.15
2019-04-07T23:10:53.303Z,48.90
2019-04-07T23:13:19.925Z,49.63
2019-04-07T23:15:47.424Z,47.08
2019-04-07T23:18:15.859Z,44.58
2019-04-07T23:20:42.740Z,43.80
2019-04-07T23:23:09.491Z,43.92
2019-04-07T23:25:36.484Z,45.25
2019-04-07T23:28:03.527Z,40.10
2019-04-07T23:30:31.340Z,38.75
2019-04-07T23:32:58.231Z,38.60
2019-04-07T23:35:24.946Z,38.50
2019-04-07T23:37:51.676Z,38.60
2019-04-07T23:40:18.406Z,36.60
2019-04-07T23:42:45.151Z,35.43
2019-04-07T23:45:12.350Z,42.20
2019-04-07T23:47:39.117Z,38.48
2019-04-07T23:50:07.113Z,33.35
2019-04-07T23:52:33.866Z,38.83
2019-04-07T23:55:00.583Z,34.15
2019-04-07T23:57:27.554Z,39.78
2019-04-07T23:59:54.389Z,36.05
